Time;durP1;ratioP1;P1;durP2;ratioP2;P2;SDS_P1;SDS_P2;PMS_P1;PMS_P2;Temp;Humidity;BMP_temperature;BMP_pressure;BME280_temperature;BME280_humidity;BME280_pressure;Samples;Min_cycle;Max_cycle;Signal;HPM_P1;HPM_P2
2024/02/09 00:00:10;;;;;;;1.30;0.90;;;0.40;99.90;;;;;;5048539;28;20084;-70
2024/02/09 00:02:40;;;;;;;0.95;0.77;;;0.40;99.90;;;;;;5048603;28;20041;-69
2024/02/09 00:05:06;;;;;;;1.02;0.68;;;0.40;99.90;;;;;;5049835;28;20448;-70
2024/02/09 00:07:32;;;;;;;1.02;0.70;;;0.40;99.90;;;;;;5048197;28;20056;-70
2024/02/09 00:09:58;;;;;;;1.15;0.88;;;0.40;99.90;;;;;;5045238;28;20041;-70
2024/02/09 00:12:25;;;;;;;1.73;0.85;;;0.40;99.90;;;;;;5045855;28;20025;-70
2024/02/09 00:14:50;;;;;;;1.17;0.75;;;0.40;99.90;;;;;;5049103;28;20420;-70
2024/02/09 00:17:16;;;;;;;2.20;1.00;;;0.40;99.90;;;;;;5036960;28;20124;-69
2024/02/09 00:19:42;;;;;;;2.95;1.10;;;0.40;99.90;;;;;;5047020;28;20124;-70
2024/02/09 00:22:07;;;;;;;1.38;0.73;;;0.40;99.90;;;;;;5024648;28;20037;-70
2024/02/09 00:24:33;;;;;;;1.67;0.90;;;0.40;99.90;;;;;;5045081;28;20121;-70
2024/02/09 00:27:04;;;;;;;1.13;0.63;;;0.40;99.90;;;;;;5044461;28;20190;-69
2024/02/09 00:29:30;;;;;;;0.75;0.68;;;0.40;99.90;;;;;;5051258;28;20456;-69
2024/02/09 00:31:56;;;;;;;0.68;0.60;;;0.40;99.90;;;;;;5047710;28;20032;-69
2024/02/09 00:34:22;;;;;;;2.10;0.90;;;0.40;99.90;;;;;;5042446;28;20100;-69
2024/02/09 00:36:47;;;;;;;2.05;1.05;;;0.40;99.90;;;;;;5040842;28;20090;-70
2024/02/09 00:39:14;;;;;;;1.02;0.70;;;0.40;99.90;;;;;;5051443;28;20029;-69
2024/02/09 00:41:40;;;;;;;0.68;0.60;;;0.40;99.90;;;;;;5043158;28;20340;-70
2024/02/09 00:44:05;;;;;;;1.98;0.90;;;0.40;99.90;;;;;;5045795;28;20113;-70
2024/02/09 00:46:32;;;;;;;1.23;0.88;;;0.40;99.80;;;;;;5046604;28;20075;-69
2024/02/09 00:49:02;;;;;;;0.98;0.70;;;0.40;99.80;;;;;;5047816;28;20111;-70
2024/02/09 00:51:28;;;;;;;1.55;0.93;;;0.40;99.90;;;;;;5050717;28;20039;-70
2024/02/09 00:53:54;;;;;;;1.35;1.05;;;0.40;99.90;;;;;;5044975;28;20451;-70
2024/02/09 00:56:19;;;;;;;1.13;1.02;;;0.40;99.90;;;;;;5055305;28;20056;-70
2024/02/09 00:58:45;;;;;;;0.88;0.73;;;0.40;99.80;;;;;;5048305;28;20090;-69
2024/02/09 01:01:11;;;;;;;1.80;0.80;;;0.50;99.80;;;;;;5041460;28;20041;-70
2024/02/09 01:03:37;;;;;;;1.88;1.00;;;0.40;99.70;;;;;;5031471;28;20025;-70
2024/02/09 01:06:04;;;;;;;0.57;0.57;;;0.40;99.80;;;;;;5042489;28;20483;-70
2024/02/09 01:08:30;;;;;;;1.83;0.93;;;0.40;99.80;;;;;;5047011;28;20412;-70
2024/02/09 01:10:55;;;;;;;3.15;1.00;;;0.50;99.80;;;;;;5043351;28;20051;-70
2024/02/09 02:46:33;;;;;;;1.38;0.90;;;0.50;99.90;;;;;;5054796;28;20067;-69
2024/02/09 03:05:27;;;;;;;0.93;0.68;;;0.50;99.90;;;;;;5050564;28;20560;-69
2024/02/09 03:07:53;;;;;;;0.68;0.50;;;0.50;99.90;;;;;;5046933;28;20187;-69
2024/02/09 03:10:19;;;;;;;0.70;0.70;;;0.50;99.90;;;;;;5048626;28;20033;-69
2024/02/09 03:12:45;;;;;;;1.17;0.73;;;0.50;99.90;;;;;;5040597;28;20033;-69
2024/02/09 03:15:11;;;;;;;1.13;0.98;;;0.60;99.90;;;;;;5051269;28;20475;-70
2024/02/09 03:17:40;;;;;;;0.95;0.70;;;0.50;99.90;;;;;;5047629;28;20152;-69
2024/02/09 03:20:06;;;;;;;0.88;0.75;;;0.50;99.90;;;;;;5050416;28;20094;-69
2024/02/09 03:22:33;;;;;;;0.50;0.50;;;0.50;99.90;;;;;;5050975;28;20455;-69
2024/02/09 03:25:03;;;;;;;0.93;0.55;;;0.50;99.90;;;;;;5044042;28;20041;-69
2024/02/09 03:27:33;;;;;;;0.82;0.60;;;0.50;99.90;;;;;;5046774;28;20316;-69
2024/02/09 03:30:00;;;;;;;0.68;0.68;;;0.50;99.90;;;;;;5051328;28;20055;-69
2024/02/09 03:32:29;;;;;;;0.30;0.30;;;0.50;99.90;;;;;;5055297;28;20091;-69
2024/02/09 03:34:56;;;;;;;1.45;0.73;;;0.50;99.90;;;;;;5041354;28;20121;-70
2024/02/09 03:37:26;;;;;;;1.23;0.60;;;0.50;99.90;;;;;;5046369;28;20045;-70
2024/02/09 03:39:58;;;;;;;0.88;0.50;;;0.50;99.90;;;;;;5051575;28;20047;-69
2024/02/09 03:42:24;;;;;;;0.88;0.60;;;0.50;99.90;;;;;;5049293;28;20032;-70
2024/02/09 03:44:56;;;;;;;0.60;0.47;;;0.50;99.90;;;;;;5038064;28;20411;-69
2024/02/09 03:47:26;;;;;;;1.33;0.70;;;0.50;99.90;;;;;;5051275;28;20040;-70
2024/02/09 03:49:56;;;;;;;0.98;0.63;;;0.50;99.90;;;;;;5052666;28;20119;-69
2024/02/09 03:52:23;;;;;;;0.60;0.38;;;0.50;99.90;;;;;;5050223;28;20389;-69
2024/02/09 03:54:52;;;;;;;1.08;0.60;;;0.50;99.90;;;;;;5050099;28;20037;-70
2024/02/09 03:57:28;;;;;;;0.57;0.57;;;0.50;99.90;;;;;;5052848;28;20044;-69
2024/02/09 03:59:54;;;;;;;0.73;0.60;;;0.50;99.90;;;;;;5041753;28;20037;-69
2024/02/09 04:02:21;;;;;;;0.55;0.50;;;0.50;99.90;;;;;;5043918;28;20351;-69
2024/02/09 04:04:49;;;;;;;0.40;0.40;;;0.50;99.90;;;;;;5046767;28;20497;-70
2024/02/09 04:07:20;;;;;;;0.30;0.30;;;0.50;99.90;;;;;;5051299;28;20040;-69
2024/02/09 04:09:46;;;;;;;1.05;0.45;;;0.50;99.90;;;;;;5045583;28;20032;-69
2024/02/09 04:12:12;;;;;;;0.50;0.40;;;0.50;99.90;;;;;;5044872;28;20336;-70
2024/02/09 04:14:38;;;;;;;0.40;0.40;;;0.60;99.90;;;;;;5052105;28;20158;-69
2024/02/09 04:17:06;;;;;;;0.30;0.30;;;0.50;99.90;;;;;;5044956;28;20367;-69
2024/02/09 04:19:33;;;;;;;0.70;0.57;;;0.50;99.90;;;;;;5044834;28;20037;-70
2024/02/09 04:21:59;;;;;;;0.60;0.50;;;0.50;99.90;;;;;;5050727;28;20498;-69
2024/02/09 04:24:24;;;;;;;0.88;0.38;;;0.50;99.90;;;;;;5041673;28;20041;-70
2024/02/09 04:26:51;;;;;;;0.60;0.30;;;0.60;99.90;;;;;;5025691;28;20086;-70
2024/02/09 04:29:20;;;;;;;0.32;0.32;;;0.60;99.90;;;;;;5041183;28;20031;-70
2024/02/09 04:31:46;;;;;;;0.70;0.30;;;0.60;99.90;;;;;;5030676;28;20127;-69
2024/02/09 04:34:15;;;;;;;0.40;0.40;;;0.60;99.90;;;;;;5037628;28;20081;-70
2024/02/09 04:36:43;;;;;;;0.73;0.50;;;0.60;99.90;;;;;;5046604;28;20031;-69
2024/02/09 04:39:10;;;;;;;0.20;0.20;;;0.60;99.90;;;;;;5048297;28;20415;-70
2024/02/09 04:41:41;;;;;;;0.30;0.30;;;0.60;99.90;;;;;;5043247;28;20068;-70
2024/02/09 04:44:07;;;;;;;0.45;0.45;;;0.60;99.90;;;;;;5040478;28;20045;-70
2024/02/09 04:46:33;;;;;;;0.32;0.32;;;0.60;99.90;;;;;;5046212;28;20052;-69
2024/02/09 04:49:06;;;;;;;0.45;0.40;;;0.60;99.90;;;;;;5044345;28;20025;-69
2024/02/09 04:51:35;;;;;;;0.40;0.40;;;0.60;99.90;;;;;;5042436;28;20041;-70
2024/02/09 04:54:01;;;;;;;0.20;0.20;;;0.60;99.90;;;;;;5045286;28;20115;-69
2024/02/09 04:56:30;;;;;;;0.40;0.40;;;0.60;99.90;;;;;;5040576;28;20396;-69
2024/02/09 04:58:56;;;;;;;0.28;0.28;;;0.60;99.90;;;;;;5046731;28;20107;-69
2024/02/09 05:01:28;;;;;;;0.40;0.40;;;0.60;99.90;;;;;;5045769;28;20190;-70
2024/02/09 05:03:59;;;;;;;0.30;0.30;;;0.60;99.90;;;;;;5044160;28;20116;-70
2024/02/09 05:06:26;;;;;;;0.63;0.38;;;0.60;99.90;;;;;;5048396;28;20036;-69
2024/02/09 05:08:53;;;;;;;0.22;0.22;;;0.50;99.90;;;;;;5046788;28;20029;-69
2024/02/09 05:11:21;;;;;;;0.30;0.30;;;0.60;99.90;;;;;;5041681;28;20032;-69
2024/02/09 05:13:50;;;;;;;0.30;0.30;;;0.60;99.90;;;;;;5042835;28;20082;-71
2024/02/09 05:16:18;;;;;;;0.47;0.40;;;0.60;99.90;;;;;;5040565;28;20081;-71
2024/02/09 05:18:44;;;;;;;0.20;0.20;;;0.60;99.90;;;;;;5044005;28;20028;-72
2024/02/09 05:21:10;;;;;;;0.32;0.32;;;0.60;99.90;;;;;;5045566;28;20115;-72
2024/02/09 05:23:36;;;;;;;1.17;0.93;;;0.50;99.90;;;;;;5046038;28;20061;-72
2024/02/09 05:26:02;;;;;;;0.65;0.57;;;0.60;99.90;;;;;;5040145;28;20041;-72
2024/02/09 05:28:27;;;;;;;0.40;0.40;;;0.60;99.90;;;;;;5043668;28;20082;-72
2024/02/09 05:30:53;;;;;;;0.75;0.50;;;0.60;99.90;;;;;;5045159;28;20495;-70
2024/02/09 05:33:18;;;;;;;0.40;0.40;;;0.60;99.90;;;;;;5043137;28;20029;-69
2024/02/09 05:35:43;;;;;;;0.30;0.30;;;0.60;99.90;;;;;;5036351;28;20486;-69
2024/02/09 05:38:10;;;;;;;0.30;0.30;;;0.60;99.90;;;;;;5047988;28;20085;-69
2024/02/09 05:40:36;;;;;;;0.30;0.30;;;0.60;99.90;;;;;;5040129;28;20082;-69
2024/02/09 05:43:01;;;;;;;0.35;0.35;;;0.60;99.90;;;;;;5048149;28;20033;-70
2024/02/09 05:45:27;;;;;;;0.38;0.38;;;0.60;99.90;;;;;;5051223;28;20498;-69
2024/02/09 05:47:53;;;;;;;0.43;0.40;;;0.60;99.90;;;;;;5041559;28;20021;-69
2024/02/09 05:50:21;;;;;;;0.52;0.40;;;0.60;99.90;;;;;;5048430;28;20078;-69
2024/02/09 05:52:47;;;;;;;0.57;0.40;;;0.60;99.90;;;;;;5044460;28;20147;-69
2024/02/09 05:55:12;;;;;;;0.40;0.40;;;0.60;99.90;;;;;;5042860;28;20160;-69
2024/02/09 05:57:38;;;;;;;0.52;0.32;;;0.60;99.90;;;;;;5044565;28;20575;-69
2024/02/09 06:00:07;;;;;;;0.47;0.30;;;0.60;99.90;;;;;;5047237;28;20439;-69
2024/02/09 06:02:33;;;;;;;0.43;0.28;;;0.60;99.90;;;;;;5049327;28;20029;-69
2024/02/09 06:04:59;;;;;;;0.38;0.38;;;0.60;99.90;;;;;;5048266;28;20021;-69
2024/02/09 06:07:27;;;;;;;0.75;0.40;;;0.60;99.90;;;;;;5056095;28;20031;-69
2024/02/09 06:09:52;;;;;;;0.30;0.28;;;0.60;99.90;;;;;;5051604;28;20041;-69
2024/02/09 06:12:18;;;;;;;0.20;0.20;;;0.60;99.90;;;;;;5054641;28;20028;-69
2024/02/09 06:14:43;;;;;;;0.28;0.28;;;0.60;99.90;;;;;;5046098;28;20110;-69
2024/02/09 06:17:12;;;;;;;0.50;0.50;;;0.60;99.90;;;;;;5043821;28;20092;-70
2024/02/09 06:19:38;;;;;;;2.83;0.40;;;0.60;99.90;;;;;;5043261;28;20041;-70
2024/02/09 06:22:04;;;;;;;0.47;0.40;;;0.60;99.90;;;;;;5048542;28;20035;-69
2024/02/09 06:24:30;;;;;;;0.20;0.20;;;0.60;99.90;;;;;;5049499;28;20036;-69
2024/02/09 06:26:56;;;;;;;0.38;0.35;;;0.60;99.90;;;;;;5042579;28;20122;-69
2024/02/09 06:29:22;;;;;;;0.80;0.40;;;0.60;99.90;;;;;;5047165;28;20113;-69
2024/02/09 06:31:47;;;;;;;0.45;0.43;;;0.60;99.90;;;;;;5029372;28;20127;-69
2024/02/09 06:34:13;;;;;;;0.30;0.30;;;0.60;99.90;;;;;;5045243;28;20068;-69
2024/02/09 06:36:39;;;;;;;0.88;0.50;;;0.60;99.90;;;;;;5040532;28;20025;-69
2024/02/09 06:39:06;;;;;;;0.32;0.30;;;0.60;99.90;;;;;;5046728;28;20056;-69
2024/02/09 06:41:33;;;;;;;0.75;0.45;;;0.60;99.90;;;;;;5047780;28;20036;-69
2024/02/09 06:43:59;;;;;;;0.40;0.40;;;0.60;99.90;;;;;;5049909;28;20029;-69
2024/02/09 06:46:25;;;;;;;0.22;0.22;;;0.60;99.90;;;;;;5041713;28;20039;-69
2024/02/09 06:48:51;;;;;;;0.40;0.40;;;0.60;99.90;;;;;;5049123;28;20143;-69
2024/02/09 06:51:20;;;;;;;0.20;0.20;;;0.60;99.90;;;;;;5053253;28;20120;-69
2024/02/09 06:53:46;;;;;;;0.20;0.20;;;0.60;99.90;;;;;;5041905;28;20037;-68
2024/02/09 06:56:14;;;;;;;0.52;0.40;;;0.60;99.90;;;;;;5045400;28;20242;-69
2024/02/09 06:58:40;;;;;;;0.30;0.30;;;0.60;99.90;;;;;;5048131;28;20041;-69
2024/02/09 07:01:10;;;;;;;0.30;0.30;;;0.60;99.90;;;;;;5051432;28;20128;-69
2024/02/09 07:03:36;;;;;;;0.20;0.20;;;0.60;99.90;;;;;;5052722;28;20155;-69
2024/02/09 07:06:04;;;;;;;0.77;0.40;;;0.60;99.90;;;;;;5041414;28;20067;-69
2024/02/09 07:08:36;;;;;;;0.30;0.30;;;0.70;99.90;;;;;;5047395;28;20332;-68
2024/02/09 07:11:03;;;;;;;0.25;0.25;;;0.60;99.90;;;;;;5054376;28;20031;-69
2024/02/09 07:13:28;;;;;;;0.45;0.45;;;0.70;99.90;;;;;;5048775;28;20029;-69
2024/02/09 07:15:54;;;;;;;0.45;0.20;;;0.70;99.90;;;;;;5013159;28;1003228;-69
2024/02/09 07:18:19;;;;;;;0.20;0.20;;;0.70;99.90;;;;;;5047901;28;20056;-69
2024/02/09 07:20:45;;;;;;;0.30;0.30;;;0.70;99.90;;;;;;5042686;28;20041;-69
2024/02/09 07:23:10;;;;;;;0.22;0.22;;;0.70;99.90;;;;;;5047897;28;20094;-69
2024/02/09 07:25:35;;;;;;;0.43;0.43;;;0.70;99.90;;;;;;5043531;28;20033;-69
2024/02/09 07:28:01;;;;;;;0.30;0.30;;;0.70;99.90;;;;;;5048387;28;20139;-69
2024/02/09 07:30:26;;;;;;;0.30;0.30;;;0.70;99.90;;;;;;5048755;28;20086;-69
2024/02/09 07:32:52;;;;;;;0.28;0.28;;;0.70;99.90;;;;;;5047044;28;20044;-69
2024/02/09 07:35:18;;;;;;;0.30;0.30;;;0.70;99.90;;;;;;5042000;28;20036;-69
2024/02/09 07:37:43;;;;;;;0.45;0.45;;;0.70;99.90;;;;;;5049362;28;20107;-69
2024/02/09 07:40:09;;;;;;;0.40;0.40;;;0.70;99.90;;;;;;5049699;28;20036;-69
2024/02/09 07:42:35;;;;;;;0.30;0.30;;;0.70;99.90;;;;;;5058070;28;20070;-69
2024/02/09 07:45:00;;;;;;;0.52;0.30;;;0.70;99.90;;;;;;5054979;28;20403;-69
2024/02/09 07:47:27;;;;;;;0.40;0.40;;;0.70;99.90;;;;;;5048103;28;20039;-69
2024/02/09 07:49:52;;;;;;;0.32;0.32;;;0.70;99.90;;;;;;5055435;28;20071;-69
2024/02/09 07:52:18;;;;;;;0.32;0.30;;;0.70;99.90;;;;;;5057570;28;20056;-69
2024/02/09 07:54:43;;;;;;;0.30;0.30;;;0.70;99.90;;;;;;5053842;28;20443;-69
2024/02/09 07:57:09;;;;;;;0.40;0.40;;;0.70;99.90;;;;;;5052506;28;20021;-69
2024/02/09 07:59:34;;;;;;;0.30;0.30;;;0.70;99.90;;;;;;5048605;28;20043;-69
2024/02/09 08:02:00;;;;;;;1.42;0.40;;;0.70;99.90;;;;;;5048381;28;20448;-69
2024/02/09 08:04:30;;;;;;;0.38;0.38;;;0.80;99.90;;;;;;5044160;28;20040;-69
2024/02/09 08:06:56;;;;;;;0.63;0.60;;;0.80;99.90;;;;;;5046573;28;20037;-69
2024/02/09 08:09:21;;;;;;;0.50;0.40;;;0.80;99.90;;;;;;5054851;28;20315;-69
2024/02/09 08:11:48;;;;;;;0.40;0.40;;;0.80;99.90;;;;;;5040846;28;20036;-69
2024/02/09 08:14:13;;;;;;;0.30;0.30;;;0.80;99.90;;;;;;5046192;28;20056;-69
2024/02/09 08:16:39;;;;;;;0.60;0.60;;;0.80;99.90;;;;;;5049628;28;20084;-68
2024/02/09 08:19:09;;;;;;;0.30;0.30;;;0.70;99.90;;;;;;5053901;28;20041;-69
2024/02/09 08:21:36;;;;;;;0.25;0.25;;;0.70;99.90;;;;;;5048947;28;20040;-68
2024/02/09 08:24:02;;;;;;;0.40;0.40;;;0.80;99.90;;;;;;5051405;28;20070;-69
2024/02/09 08:26:27;;;;;;;0.70;0.30;;;0.80;99.90;;;;;;5033319;28;20119;-69
2024/02/09 08:28:53;;;;;;;0.40;0.40;;;0.80;99.90;;;;;;5046487;28;20032;-69
2024/02/09 08:31:18;;;;;;;0.40;0.40;;;0.80;99.90;;;;;;5043014;28;20025;-69
2024/02/09 08:33:46;;;;;;;0.68;0.50;;;0.80;99.90;;;;;;5042311;28;20063;-69
2024/02/09 08:36:12;;;;;;;0.30;0.30;;;0.80;99.90;;;;;;5047971;28;20195;-69
2024/02/09 08:38:38;;;;;;;0.50;0.30;;;0.80;99.90;;;;;;5049947;28;20120;-70
2024/02/09 08:41:07;;;;;;;0.63;0.50;;;0.90;99.90;;;;;;5043391;28;20070;-69
2024/02/09 08:43:33;;;;;;;0.32;0.32;;;0.90;99.90;;;;;;5050278;28;20025;-69
2024/02/09 08:45:59;;;;;;;0.45;0.45;;;0.90;99.90;;;;;;5053833;28;20064;-69
2024/02/09 08:48:24;;;;;;;0.30;0.30;;;0.90;99.90;;;;;;5047567;28;20335;-69
2024/02/09 08:50:50;;;;;;;0.50;0.50;;;0.90;99.90;;;;;;5044077;28;20411;-69
2024/02/09 08:53:15;;;;;;;0.40;0.40;;;0.90;99.90;;;;;;5049642;28;20120;-69
2024/02/09 08:55:42;;;;;;;0.30;0.30;;;1.00;99.90;;;;;;5046955;28;20123;-69
2024/02/09 08:58:07;;;;;;;0.40;0.40;;;1.00;99.90;;;;;;5045829;28;20384;-70
2024/02/09 09:00:33;;;;;;;0.30;0.30;;;1.00;99.90;;;;;;5047251;28;20106;-69
2024/02/09 09:02:59;;;;;;;0.50;0.47;;;1.00;99.90;;;;;;5039903;28;20074;-69
2024/02/09 09:05:26;;;;;;;0.45;0.38;;;1.00;99.90;;;;;;5047702;28;20120;-69
2024/02/09 09:07:52;;;;;;;0.30;0.30;;;1.00;99.90;;;;;;5048107;28;20033;-69
2024/02/09 09:10:17;;;;;;;0.35;0.30;;;1.00;99.90;;;;;;5044368;28;20113;-69
2024/02/09 09:12:43;;;;;;;0.40;0.40;;;1.00;99.90;;;;;;5043952;28;20049;-69
2024/02/09 09:15:09;;;;;;;0.47;0.40;;;1.00;99.90;;;;;;5038524;28;20091;-69
2024/02/09 09:17:34;;;;;;;1.00;0.45;;;1.00;99.90;;;;;;5026691;28;20060;-69
2024/02/09 09:20:00;;;;;;;0.38;0.38;;;1.00;99.90;;;;;;5045148;28;20090;-69
2024/02/09 09:22:25;;;;;;;0.40;0.40;;;1.00;99.90;;;;;;5046168;28;20104;-69
2024/02/09 09:24:51;;;;;;;0.43;0.40;;;1.00;99.90;;;;;;5043640;28;20036;-69
2024/02/09 09:27:18;;;;;;;0.25;0.25;;;1.10;99.90;;;;;;5026495;28;20025;-69
2024/02/09 09:29:44;;;;;;;0.30;0.30;;;1.10;99.90;;;;;;5045473;28;20040;-69
2024/02/09 09:32:10;;;;;;;0.20;0.20;;;1.10;99.90;;;;;;5057849;28;20021;-70
2024/02/09 09:34:35;;;;;;;0.32;0.32;;;1.10;99.90;;;;;;5038827;28;20043;-69
2024/02/09 09:37:01;;;;;;;0.30;0.30;;;1.20;99.90;;;;;;5040462;28;20039;-69
2024/02/09 09:39:26;;;;;;;0.43;0.40;;;1.20;99.90;;;;;;5042995;28;20113;-69
2024/02/09 09:41:53;;;;;;;0.77;0.52;;;1.20;99.90;;;;;;5046910;28;20048;-69
2024/02/09 09:44:26;;;;;;;0.98;0.50;;;1.20;99.90;;;;;;5044345;28;20495;-69
2024/02/09 09:46:52;;;;;;;1.00;0.50;;;1.20;99.90;;;;;;5045261;28;20111;-69
2024/02/09 09:49:18;;;;;;;0.55;0.43;;;1.10;99.90;;;;;;5044639;28;20047;-69
2024/02/09 09:51:50;;;;;;;0.38;0.30;;;1.20;99.90;;;;;;5043720;28;20033;-69
2024/02/09 09:54:20;;;;;;;0.63;0.55;;;1.10;99.90;;;;;;5047637;28;20106;-69
2024/02/09 09:56:47;;;;;;;1.47;0.53;;;1.20;99.90;;;;;;5045473;28;20128;-69
2024/02/09 09:59:13;;;;;;;0.30;0.30;;;1.30;99.90;;;;;;5041084;28;20073;-69
2024/02/09 10:01:39;;;;;;;0.30;0.30;;;1.30;99.90;;;;;;5049744;28;20081;-69
2024/02/09 10:04:05;;;;;;;0.52;0.40;;;1.30;99.90;;;;;;5044170;28;20058;-69
2024/02/09 10:06:30;;;;;;;1.45;0.60;;;1.20;99.90;;;;;;5047877;28;20107;-69
2024/02/09 10:08:57;;;;;;;0.30;0.30;;;1.20;99.90;;;;;;5046806;28;20114;-69
2024/02/09 10:11:24;;;;;;;0.45;0.40;;;1.20;99.90;;;;;;5042675;28;20379;-69
2024/02/09 10:13:51;;;;;;;1.02;0.43;;;1.30;99.90;;;;;;5043880;28;20036;-69
2024/02/09 10:16:19;;;;;;;0.98;0.80;;;1.20;99.90;;;;;;5052264;28;20412;-69
2024/02/09 10:18:45;;;;;;;0.70;0.50;;;1.30;99.90;;;;;;5045614;28;20040;-69
2024/02/09 10:21:11;;;;;;;0.30;0.28;;;1.30;99.90;;;;;;5025331;28;20034;-70
2024/02/09 10:23:37;;;;;;;0.40;0.40;;;1.30;99.90;;;;;;5045904;28;20029;-69
2024/02/09 10:26:04;;;;;;;0.88;0.43;;;1.30;99.90;;;;;;5024281;28;20370;-69
2024/02/09 10:28:30;;;;;;;0.88;0.40;;;1.30;99.90;;;;;;5042691;28;20024;-69
2024/02/09 10:30:59;;;;;;;0.35;0.30;;;1.30;99.90;;;;;;5045450;28;20503;-69
2024/02/09 10:33:25;;;;;;;0.30;0.30;;;1.30;99.90;;;;;;5044366;28;20025;-70
2024/02/09 10:35:54;;;;;;;0.35;0.35;;;1.40;99.90;;;;;;5037457;28;20039;-70
2024/02/09 10:38:19;;;;;;;0.30;0.30;;;1.40;99.90;;;;;;5044936;28;20025;-69
2024/02/09 10:40:52;;;;;;;0.68;0.50;;;1.40;99.90;;;;;;5043609;28;20045;-69
2024/02/09 10:43:18;;;;;;;1.00;0.55;;;1.40;99.90;;;;;;5046952;28;20037;-69
2024/02/09 10:45:45;;;;;;;0.57;0.40;;;1.40;99.90;;;;;;5054220;28;20431;-69
2024/02/09 10:48:12;;;;;;;1.05;0.68;;;1.40;99.90;;;;;;5052346;28;20110;-69
2024/02/09 10:50:38;;;;;;;1.02;0.60;;;1.40;99.90;;;;;;5051342;28;20404;-69
2024/02/09 10:53:06;;;;;;;1.75;0.47;;;1.40;99.90;;;;;;5054317;28;20415;-69
2024/02/09 10:55:41;;;;;;;1.33;0.50;;;1.40;99.90;;;;;;5048512;28;20468;-69
2024/02/09 10:58:10;;;;;;;0.88;0.40;;;1.40;99.90;;;;;;5047756;28;20025;-69
2024/02/09 11:00:38;;;;;;;0.40;0.40;;;1.40;99.90;;;;;;5046774;28;20064;-69
2024/02/09 11:03:03;;;;;;;4.85;0.55;;;1.40;99.90;;;;;;5045960;28;20116;-69
2024/02/09 11:05:29;;;;;;;0.20;0.20;;;1.40;99.90;;;;;;5046617;28;20527;-70
2024/02/09 11:07:56;;;;;;;0.93;0.45;;;1.50;99.90;;;;;;5042426;28;20037;-69
2024/02/09 11:10:21;;;;;;;0.77;0.60;;;1.50;99.90;;;;;;5047027;28;20043;-69
2024/02/09 11:12:57;;;;;;;0.28;0.25;;;1.60;99.90;;;;;;5046628;28;20041;-69
2024/02/09 11:15:23;;;;;;;0.30;0.30;;;1.60;99.90;;;;;;5046313;28;20184;-69
2024/02/09 11:17:49;;;;;;;0.75;0.32;;;1.60;99.90;;;;;;5047820;28;20120;-69
2024/02/09 11:20:16;;;;;;;0.20;0.20;;;1.70;99.90;;;;;;5048458;28;20040;-69
2024/02/09 11:22:47;;;;;;;0.30;0.30;;;1.70;99.90;;;;;;5047018;28;20029;-69
2024/02/09 11:25:16;;;;;;;;;;;1.60;99.90;;;;;;5041456;28;20132;-69
2024/02/09 11:27:51;;;;;;;0.73;0.38;;;1.60;99.90;;;;;;5041909;28;19915;-69
2024/02/09 11:30:21;;;;;;;1.10;0.45;;;1.60;99.90;;;;;;5046420;28;20131;-69
2024/02/09 11:32:50;;;;;;;0.47;0.47;;;1.70;99.90;;;;;;5047097;28;20965;-69
2024/02/09 11:35:17;;;;;;;0.65;0.30;;;1.80;99.90;;;;;;5044810;28;20528;-69
2024/02/09 11:37:44;;;;;;;0.50;0.50;;;1.70;99.90;;;;;;5049255;28;20029;-69
2024/02/09 11:40:17;;;;;;;1.17;0.57;;;1.70;99.90;;;;;;5050272;28;20083;-69
2024/02/09 11:42:43;;;;;;;0.30;0.30;;;1.80;99.90;;;;;;5041673;28;20029;-69
2024/02/09 11:45:09;;;;;;;0.65;0.50;;;1.90;99.90;;;;;;5048135;28;20090;-69
2024/02/09 11:47:39;;;;;;;1.38;0.85;;;1.80;99.90;;;;;;5030846;28;20037;-69
2024/02/09 11:50:17;;;;;;;0.50;0.40;;;1.80;99.90;;;;;;5046475;28;20371;-69
2024/02/09 11:52:43;;;;;;;0.68;0.50;;;1.80;99.90;;;;;;5046183;28;20147;-69
2024/02/09 11:55:08;;;;;;;1.02;0.60;;;1.80;99.90;;;;;;5045243;28;20101;-69
2024/02/09 11:57:34;;;;;;;0.50;0.50;;;1.80;99.90;;;;;;5047500;28;20045;-69
2024/02/09 11:59:59;;;;;;;0.60;0.50;;;1.90;99.90;;;;;;5045349;28;20410;-69
2024/02/09 12:02:25;;;;;;;0.85;0.55;;;2.00;99.90;;;;;;5045101;28;20026;-69
2024/02/09 12:04:51;;;;;;;0.30;0.30;;;2.10;99.90;;;;;;5046929;28;20374;-69
2024/02/09 12:07:17;;;;;;;0.65;0.30;;;2.00;99.90;;;;;;5048038;28;20467;-69
2024/02/09 12:09:42;;;;;;;1.48;0.50;;;2.10;99.90;;;;;;5045874;28;20109;-70
2024/02/09 12:12:08;;;;;;;0.80;0.35;;;2.10;99.90;;;;;;5045639;28;20118;-69
2024/02/09 12:14:33;;;;;;;0.50;0.40;;;2.00;99.90;;;;;;5049902;28;20044;-70
2024/02/09 12:16:59;;;;;;;0.30;0.30;;;2.10;99.90;;;;;;5047329;28;20029;-69
2024/02/09 12:19:25;;;;;;;1.17;0.82;;;2.00;99.90;;;;;;5049486;28;20518;-69
2024/02/09 12:21:51;;;;;;;0.63;0.60;;;2.10;99.90;;;;;;5042486;28;20036;-69
2024/02/09 12:24:17;;;;;;;0.70;0.60;;;2.10;99.90;;;;;;5047631;28;20097;-70
2024/02/09 12:26:42;;;;;;;2.08;1.10;;;2.10;99.90;;;;;;5044220;28;20127;-69
2024/02/09 12:29:12;;;;;;;1.40;0.82;;;2.10;99.90;;;;;;5045700;28;20029;-70
2024/02/09 12:31:41;;;;;;;0.73;0.60;;;2.20;99.90;;;;;;5047784;28;20107;-69
2024/02/09 12:34:06;;;;;;;1.25;0.80;;;2.30;99.90;;;;;;5039261;28;20052;-70
2024/02/09 12:36:32;;;;;;;1.02;0.70;;;2.30;99.90;;;;;;5044530;28;20025;-70
2024/02/09 12:39:06;;;;;;;1.15;0.80;;;2.30;99.90;;;;;;5051758;28;20040;-70
2024/02/09 12:41:31;;;;;;;0.77;0.70;;;2.40;99.90;;;;;;5044009;28;20062;-69
2024/02/09 12:44:01;;;;;;;1.52;0.60;;;2.50;99.90;;;;;;5046619;28;20037;-69
2024/02/09 12:46:27;;;;;;;0.70;0.67;;;2.50;99.90;;;;;;5046302;28;20440;-70
2024/02/09 12:48:56;;;;;;;1.08;0.77;;;2.60;99.90;;;;;;5043202;28;20095;-69
2024/02/09 12:51:23;;;;;;;1.55;0.82;;;2.50;99.90;;;;;;5044844;28;20033;-70
2024/02/09 12:53:48;;;;;;;1.80;1.15;;;2.40;99.90;;;;;;5047672;28;20091;-70
2024/02/09 12:56:14;;;;;;;1.65;0.80;;;2.50;99.90;;;;;;5049627;28;20491;-69
2024/02/09 12:58:40;;;;;;;1.63;1.05;;;2.50;99.90;;;;;;5046779;28;20044;-70
2024/02/09 13:01:06;;;;;;;2.30;0.90;;;2.60;99.90;;;;;;5044292;28;20059;-70
2024/02/09 13:03:32;;;;;;;1.52;0.93;;;2.60;99.90;;;;;;5044858;28;20478;-69
2024/02/09 13:05:58;;;;;;;2.33;1.15;;;2.60;99.90;;;;;;5050419;28;20098;-69
2024/02/09 13:08:24;;;;;;;2.13;1.27;;;2.60;99.90;;;;;;5047465;28;20443;-69
2024/02/09 13:10:50;;;;;;;1.27;0.80;;;2.60;99.90;;;;;;5043275;28;20037;-69
2024/02/09 13:13:17;;;;;;;4.03;0.95;;;2.50;99.90;;;;;;5046101;28;20029;-69
2024/02/09 13:15:44;;;;;;;1.17;0.75;;;2.50;99.90;;;;;;5038942;28;20075;-70
2024/02/09 13:18:10;;;;;;;0.73;0.68;;;2.50;99.90;;;;;;5045696;28;20028;-69
2024/02/09 13:20:36;;;;;;;1.38;0.80;;;2.50;99.90;;;;;;5045947;28;20120;-69
2024/02/09 13:23:02;;;;;;;0.68;0.52;;;2.60;99.90;;;;;;5056168;28;20421;-69
2024/02/09 13:25:35;;;;;;;1.33;0.82;;;2.60;99.90;;;;;;5051667;28;20029;-70
2024/02/09 13:28:01;;;;;;;1.38;0.82;;;2.70;99.90;;;;;;5043029;28;20084;-69
2024/02/09 13:30:29;;;;;;;1.40;0.90;;;2.70;99.90;;;;;;5039102;28;20596;-69
2024/02/09 13:32:56;;;;;;;1.55;0.93;;;2.80;99.90;;;;;;5042218;28;20398;-69
2024/02/09 13:35:22;;;;;;;2.90;1.10;;;2.80;99.90;;;;;;5042896;28;20223;-69
2024/02/09 13:37:49;;;;;;;1.45;0.77;;;2.90;99.90;;;;;;5044484;28;20025;-70
2024/02/09 13:40:15;;;;;;;2.47;1.00;;;2.90;99.90;;;;;;5039715;28;20443;-69
2024/02/09 13:42:47;;;;;;;3.03;1.33;;;3.00;99.90;;;;;;5048645;28;20071;-69
2024/02/09 13:45:17;;;;;;;3.92;1.30;;;3.00;99.90;;;;;;5047097;28;20132;-69
2024/02/09 13:47:43;;;;;;;2.75;1.30;;;3.10;99.90;;;;;;5045041;28;20029;-69
2024/02/09 13:50:11;;;;;;;1.60;1.20;;;3.20;99.90;;;;;;5040744;28;20116;-69
2024/02/09 13:52:40;;;;;;;2.17;1.30;;;3.20;99.90;;;;;;5058671;28;20498;-70
2024/02/09 13:55:12;;;;;;;1.85;0.90;;;3.30;99.90;;;;;;5043894;28;20033;-69
2024/02/09 13:57:48;;;;;;;3.08;1.17;;;3.20;99.90;;;;;;5044393;28;20439;-69
2024/02/09 14:00:18;;;;;;;1.63;0.95;;;3.20;99.90;;;;;;5042910;28;20365;-69
2024/02/09 14:02:45;;;;;;;1.73;0.90;;;3.20;99.90;;;;;;5039885;28;20409;-69
2024/02/09 14:05:10;;;;;;;3.08;1.27;;;3.10;99.90;;;;;;5044802;28;20036;-70
2024/02/09 14:07:40;;;;;;;1.80;1.13;;;3.20;99.90;;;;;;5040713;28;20029;-69
2024/02/09 14:10:08;;;;;;;2.67;1.30;;;3.20;99.90;;;;;;5048731;28;20032;-69
2024/02/09 14:12:33;;;;;;;3.67;1.70;;;3.20;99.90;;;;;;5044473;28;20037;-68
2024/02/09 14:15:01;;;;;;;2.55;1.40;;;3.20;99.90;;;;;;5044960;28;20057;-69
2024/02/09 14:17:27;;;;;;;2.63;1.20;;;3.10;99.90;;;;;;5045508;28;20482;-69
2024/02/09 14:19:52;;;;;;;3.60;1.63;;;3.10;99.90;;;;;;5047704;28;20048;-69
2024/02/09 14:22:18;;;;;;;2.28;1.60;;;3.20;99.90;;;;;;5049229;28;20383;-69
2024/02/09 14:24:43;;;;;;;2.63;1.42;;;3.20;99.90;;;;;;5047525;28;20037;-69
2024/02/09 14:27:11;;;;;;;4.60;2.22;;;3.30;99.90;;;;;;5048538;28;20032;-69
2024/02/09 14:29:38;;;;;;;4.03;1.60;;;3.30;99.90;;;;;;5048958;28;20081;-69
2024/02/09 14:32:04;;;;;;;1.80;1.30;;;3.30;99.90;;;;;;5047334;28;20040;-68
2024/02/09 14:34:30;;;;;;;3.13;1.70;;;3.30;99.90;;;;;;5044058;28;20033;-69
2024/02/09 14:36:56;;;;;;;3.72;1.85;;;3.30;99.90;;;;;;5046650;28;20039;-69
2024/02/09 14:39:21;;;;;;;2.75;1.45;;;3.40;99.90;;;;;;5055265;28;20044;-69
2024/02/09 14:41:47;;;;;;;4.15;1.70;;;3.40;99.90;;;;;;5054257;28;20056;-69
2024/02/09 14:44:12;;;;;;;4.35;2.20;;;3.50;99.90;;;;;;5057443;28;20450;-69